createdAt,value
2018-10-16T00:02:06.019Z,15.00
2018-10-16T00:04:34.364Z,15.37
2018-10-16T00:07:02.600Z,15.93
2018-10-16T00:09:30.761Z,16.30
2018-10-16T00:12:02.036Z,29.10
2018-10-16T00:14:30.528Z,15.57
2018-10-16T00:16:58.882Z,18.43
2018-10-16T00:19:27.003Z,17.67
2018-10-16T00:21:55.488Z,18.90
2018-10-16T00:24:23.831Z,25.17
2018-10-16T00:26:52.112Z,17.30
2018-10-16T00:29:20.724Z,15.50
2018-10-16T00:31:48.847Z,15.63
2018-10-16T00:34:16.985Z,17.40
2018-10-16T00:36:45.118Z,13.90
2018-10-16T00:39:14.214Z,15.77
2018-10-16T00:41:42.592Z,17.30
2018-10-16T00:44:11.817Z,20.63
2018-10-16T00:46:41.227Z,14.60
2018-10-16T00:49:09.334Z,19.47
2018-10-16T00:51:39.179Z,15.03
2018-10-16T00:54:07.356Z,13.47
2018-10-16T00:56:35.639Z,13.20
2018-10-16T00:59:03.800Z,14.87
2018-10-16T01:01:33.980Z,14.70
2018-10-16T01:04:04.196Z,16.70
2018-10-16T01:06:33.441Z,15.63
2018-10-16T01:09:01.523Z,15.13
2018-10-16T01:11:29.686Z,15.00
2018-10-16T01:13:58.333Z,15.13
2018-10-16T01:16:26.487Z,16.37
2018-10-16T01:18:54.609Z,18.73
2018-10-16T01:21:22.723Z,16.07
2018-10-16T01:23:50.826Z,12.73
2018-10-16T01:26:18.935Z,14.27
2018-10-16T01:28:47.120Z,17.87
2018-10-16T01:31:15.242Z,18.90
2018-10-16T01:33:43.396Z,15.90
2018-10-16T01:36:11.945Z,19.20
2018-10-16T01:38:40.135Z,14.93
2018-10-16T01:41:09.456Z,18.10
2018-10-16T01:43:37.951Z,17.43
2018-10-16T01:46:06.086Z,18.73
2018-10-16T01:48:34.453Z,18.53
2018-10-16T01:51:02.626Z,14.47
2018-10-16T01:53:30.757Z,15.40
2018-10-16T01:55:58.932Z,18.57
2018-10-16T01:58:27.247Z,22.50
2018-10-16T02:00:55.370Z,14.57
2018-10-16T02:03:23.500Z,16.97
2018-10-16T02:05:51.675Z,16.70
2018-10-16T02:08:19.812Z,17.70
2018-10-16T02:10:47.932Z,15.73
2018-10-16T02:13:16.112Z,17.03
2018-10-16T02:15:44.231Z,14.47
2018-10-16T02:18:12.355Z,14.57
2018-10-16T02:20:40.514Z,18.37
2018-10-16T02:23:08.643Z,18.50
2018-10-16T02:25:36.791Z,17.33
2018-10-16T02:28:05.097Z,13.67
2018-10-16T02:30:33.356Z,20.73
2018-10-16T02:33:01.641Z,16.67
2018-10-16T02:35:29.779Z,18.47
2018-10-16T02:37:57.925Z,14.70
2018-10-16T02:40:26.054Z,21.67
2018-10-16T02:42:54.176Z,14.00
2018-10-16T02:45:22.268Z,16.50
2018-10-16T02:47:50.378Z,15.03
2018-10-16T02:50:18.653Z,14.90
2018-10-16T02:52:46.798Z,18.97
2018-10-16T02:55:14.896Z,19.40
2018-10-16T02:57:43.075Z,16.37
2018-10-16T03:00:11.207Z,15.33
2018-10-16T03:02:39.355Z,15.27
2018-10-16T03:05:07.634Z,15.57
2018-10-16T03:07:35.757Z,16.40
2018-10-16T03:10:03.977Z,15.33
2018-10-16T03:12:32.108Z,13.43
2018-10-16T03:15:00.319Z,16.90
2018-10-16T03:17:28.456Z,13.70
2018-10-16T03:19:56.609Z,13.20
2018-10-16T03:22:24.787Z,15.53
2018-10-16T03:24:52.888Z,16.13
2018-10-16T03:27:21.067Z,16.27
2018-10-16T03:29:49.203Z,15.83
2018-10-16T03:32:17.379Z,14.50
2018-10-16T03:34:45.522Z,14.13
2018-10-16T03:37:13.684Z,15.40
2018-10-16T03:39:41.811Z,17.53
2018-10-16T03:42:09.905Z,15.73
2018-10-16T03:44:38.043Z,13.13
2018-10-16T03:47:06.270Z,14.27
2018-10-16T03:49:34.396Z,16.30
2018-10-16T03:52:02.556Z,16.73
2018-10-16T03:54:30.676Z,17.40
2018-10-16T03:56:58.814Z,13.27
2018-10-16T03:59:26.925Z,17.77
2018-10-16T04:01:55.024Z,18.80
2018-10-16T04:04:23.132Z,17.43
2018-10-16T04:06:51.343Z,18.17
2018-10-16T04:09:19.338Z,16.57
2018-10-16T04:11:47.441Z,14.67
2018-10-16T04:14:15.578Z,21.97
2018-10-16T04:16:43.696Z,16.33
2018-10-16T04:19:11.753Z,16.23
2018-10-16T04:21:47.128Z,15.20
2018-10-16T04:24:15.577Z,19.00
2018-10-16T04:26:43.724Z,17.60
2018-10-16T04:29:12.267Z,19.30
2018-10-16T04:31:40.544Z,14.97
2018-10-16T04:34:09.706Z,14.67
2018-10-16T04:36:37.866Z,17.20
2018-10-16T04:39:08.727Z,16.03
2018-10-16T04:41:36.890Z,17.20
2018-10-16T04:44:05.033Z,16.63
2018-10-16T04:46:33.127Z,20.70
2018-10-16T04:49:01.247Z,18.70
2018-10-16T04:51:29.361Z,20.70
2018-10-16T04:53:57.464Z,16.43
2018-10-16T04:56:25.548Z,18.80
2018-10-16T04:58:53.632Z,24.87
2018-10-16T05:01:21.786Z,20.73
2018-10-16T05:03:49.916Z,17.83
2018-10-16T05:06:18.060Z,20.93
2018-10-16T05:08:46.180Z,20.13
2018-10-16T05:11:14.371Z,19.17
2018-10-16T05:13:42.596Z,23.60
2018-10-16T05:16:10.709Z,20.70
2018-10-16T05:18:38.853Z,23.57
2018-10-16T05:21:06.934Z,22.17
2018-10-16T05:23:35.027Z,22.00
2018-10-16T05:26:03.109Z,23.77
2018-10-16T05:28:31.243Z,24.93
2018-10-16T05:30:59.435Z,20.67
2018-10-16T05:33:27.462Z,31.17
2018-10-16T05:35:55.591Z,26.47
2018-10-16T05:38:23.659Z,21.07
2018-10-16T05:40:51.751Z,22.70
2018-10-16T05:43:19.925Z,27.80
2018-10-16T05:45:48.043Z,17.83
2018-10-16T05:48:16.203Z,25.63
2018-10-16T05:50:44.722Z,19.60
2018-10-16T05:53:12.832Z,19.33
2018-10-16T05:55:40.926Z,23.10
2018-10-16T05:58:09.205Z,22.67
2018-10-16T06:00:39.247Z,29.90
2018-10-16T06:03:07.408Z,25.03
2018-10-16T06:05:35.769Z,22.77
2018-10-16T06:08:03.920Z,24.53
2018-10-16T06:10:32.060Z,22.13
2018-10-16T06:13:00.200Z,19.43
2018-10-16T06:15:28.305Z,23.57
2018-10-16T06:17:56.425Z,21.50
2018-10-16T06:20:24.513Z,30.70
2018-10-16T06:22:52.612Z,28.37
2018-10-16T06:25:20.693Z,27.13
2018-10-16T06:27:48.810Z,28.70
2018-10-16T06:30:16.960Z,25.10
2018-10-16T06:32:45.021Z,25.00
2018-10-16T06:35:13.102Z,26.60
2018-10-16T06:37:41.181Z,38.27
2018-10-16T06:40:10.133Z,30.83
2018-10-16T06:42:38.581Z,28.87
2018-10-16T06:45:08.075Z,36.67
2018-10-16T06:47:36.219Z,31.13
2018-10-16T06:50:05.198Z,29.53
2018-10-16T06:52:33.439Z,27.80
2018-10-16T06:55:01.581Z,39.23
2018-10-16T06:57:29.680Z,19.83
2018-10-16T06:59:57.866Z,28.47
2018-10-16T07:02:25.974Z,29.03
2018-10-16T07:04:54.167Z,26.03
2018-10-16T07:07:22.429Z,26.53
2018-10-16T07:09:50.461Z,28.67
2018-10-16T07:12:18.633Z,26.60
2018-10-16T07:14:46.764Z,27.87
2018-10-16T07:17:14.808Z,26.80
2018-10-16T07:19:42.905Z,24.17
2018-10-16T07:22:11.871Z,27.67
2018-10-16T07:24:39.986Z,28.30
2018-10-16T07:27:08.127Z,26.53
2018-10-16T07:29:36.654Z,30.23
2018-10-16T07:32:05.183Z,22.30
2018-10-16T07:34:33.610Z,22.83
2018-10-16T07:37:01.838Z,23.03
2018-10-16T07:39:29.984Z,23.97
2018-10-16T07:41:58.089Z,18.27
2018-10-16T07:44:26.227Z,22.33
2018-10-16T07:46:54.442Z,25.60
2018-10-16T07:49:22.710Z,29.77
2018-10-16T07:51:50.858Z,22.17
2018-10-16T07:54:19.133Z,32.97
2018-10-16T07:56:47.469Z,20.83
2018-10-16T07:59:15.807Z,24.27
2018-10-16T08:01:44.088Z,26.50
2018-10-16T08:04:12.481Z,19.97
2018-10-16T08:06:40.653Z,23.30
2018-10-16T08:09:12.209Z,20.43
2018-10-16T08:11:45.250Z,26.43
2018-10-16T08:14:14.451Z,24.40
2018-10-16T08:16:43.269Z,21.90
2018-10-16T08:19:11.737Z,24.77
2018-10-16T08:21:40.289Z,21.27
2018-10-16T08:24:09.266Z,20.47
2018-10-16T08:26:37.874Z,22.37
2018-10-16T08:29:07.242Z,20.70
2018-10-16T08:31:35.706Z,21.70
2018-10-16T08:34:10.648Z,17.67
2018-10-16T08:36:38.900Z,18.67
2018-10-16T08:39:40.373Z,18.80
2018-10-16T08:43:23.700Z,16.90
2018-10-16T08:46:03.460Z,22.70
2018-10-16T08:48:43.914Z,20.03
2018-10-16T08:51:23.559Z,19.73
2018-10-16T08:53:51.644Z,19.67
2018-10-16T08:56:19.714Z,18.03
2018-10-16T08:58:47.783Z,17.23
2018-10-16T09:01:15.873Z,20.93
2018-10-16T09:03:43.967Z,29.27
2018-10-16T09:06:12.044Z,19.93
2018-10-16T09:08:40.156Z,20.40
2018-10-16T09:11:08.327Z,24.40
2018-10-16T09:13:36.425Z,20.63
2018-10-16T09:16:04.530Z,26.03
2018-10-16T09:18:32.600Z,20.87
2018-10-16T09:21:00.714Z,26.03
2018-10-16T09:23:28.800Z,17.07
2018-10-16T09:25:57.425Z,21.80
2018-10-16T09:28:25.567Z,20.87
2018-10-16T09:30:53.727Z,20.73
2018-10-16T09:33:21.838Z,21.83
2018-10-16T09:35:49.989Z,20.43
2018-10-16T09:38:18.129Z,23.47
2018-10-16T09:40:46.235Z,19.77
2018-10-16T09:43:14.353Z,23.00
2018-10-16T09:45:42.476Z,14.13
2018-10-16T09:48:10.598Z,22.90
2018-10-16T09:50:38.751Z,34.57
2018-10-16T09:53:07.173Z,25.73
2018-10-16T09:55:35.326Z,21.57
2018-10-16T09:58:03.449Z,22.83
2018-10-16T10:01:37.690Z,21.77
2018-10-16T10:04:05.865Z,17.03
2018-10-16T10:06:34.124Z,21.17
2018-10-16T10:09:02.258Z,16.57
2018-10-16T10:11:30.348Z,22.90
2018-10-16T10:13:58.540Z,27.87
2018-10-16T10:16:27.419Z,23.33
2018-10-16T10:18:55.569Z,13.67
2018-10-16T10:21:23.724Z,22.27
2018-10-16T10:23:51.840Z,23.20
2018-10-16T10:26:20.091Z,15.63
2018-10-16T10:28:48.734Z,17.27
2018-10-16T10:31:16.876Z,18.13
2018-10-16T10:33:45.043Z,17.83
2018-10-16T10:36:13.471Z,20.13
2018-10-16T10:38:41.628Z,18.40
2018-10-16T10:41:09.706Z,21.13
2018-10-16T10:43:38.012Z,19.63
2018-10-16T10:46:06.247Z,22.07
2018-10-16T10:48:34.331Z,23.40
2018-10-16T10:51:02.663Z,21.43
2018-10-16T10:53:30.633Z,17.57
2018-10-16T10:55:58.716Z,19.23
2018-10-16T10:58:26.918Z,14.73
2018-10-16T11:00:55.067Z,19.97
2018-10-16T11:03:23.368Z,17.23
2018-10-16T11:05:51.403Z,23.00
2018-10-16T11:08:19.521Z,17.20
2018-10-16T11:10:47.656Z,18.30
2018-10-16T11:13:15.755Z,18.13
2018-10-16T11:15:43.836Z,16.93
2018-10-16T11:18:11.943Z,17.50
2018-10-16T11:20:40.072Z,17.33
2018-10-16T11:23:08.189Z,18.33
2018-10-16T11:25:36.272Z,22.57
2018-10-16T11:28:04.507Z,22.47
2018-10-16T11:30:32.608Z,16.73
2018-10-16T11:33:00.793Z,21.27
2018-10-16T11:35:28.837Z,17.53
2018-10-16T11:37:56.954Z,18.47
2018-10-16T11:40:25.032Z,16.43
2018-10-16T11:42:53.127Z,14.50
2018-10-16T11:45:21.240Z,15.70
2018-10-16T11:47:49.337Z,19.33
2018-10-16T11:50:17.618Z,20.43
2018-10-16T11:52:45.659Z,19.33
2018-10-16T11:55:13.764Z,14.30
2018-10-16T11:57:41.847Z,15.13
2018-10-16T12:00:12.242Z,19.40
2018-10-16T12:02:40.441Z,18.20
2018-10-16T12:05:08.557Z,16.03
2018-10-16T12:07:36.703Z,16.50
2018-10-16T12:10:05.118Z,15.60
2018-10-16T12:12:33.167Z,17.40
2018-10-16T12:15:01.267Z,21.70
2018-10-16T12:17:38.773Z,18.57
2018-10-16T12:20:10.221Z,19.90
2018-10-16T12:22:38.360Z,21.10
2018-10-16T12:25:06.942Z,15.30
2018-10-16T12:27:35.033Z,16.87
2018-10-16T12:30:03.213Z,21.20
2018-10-16T12:32:31.385Z,17.13
2018-10-16T12:34:59.749Z,17.97
2018-10-16T12:37:27.859Z,15.37
2018-10-16T12:39:55.961Z,18.67
2018-10-16T12:42:24.072Z,22.63
2018-10-16T12:44:52.189Z,18.03
2018-10-16T12:47:20.284Z,21.60
2018-10-16T12:49:48.488Z,24.70
2018-10-16T12:52:16.604Z,23.87
2018-10-16T12:54:44.692Z,23.47
2018-10-16T12:57:12.821Z,22.63
2018-10-16T12:59:40.919Z,24.03
2018-10-16T13:02:09.073Z,13.87
2018-10-16T13:04:37.128Z,15.80
2018-10-16T13:07:15.108Z,23.83
2018-10-16T13:09:43.251Z,20.40
2018-10-16T13:12:11.357Z,22.47
2018-10-16T13:14:39.571Z,18.67
2018-10-16T13:17:07.711Z,14.20
2018-10-16T13:19:35.794Z,18.53
2018-10-16T13:22:03.924Z,21.63
2018-10-16T13:24:32.094Z,18.00
2018-10-16T13:27:00.285Z,14.50
2018-10-16T13:29:28.553Z,21.73
2018-10-16T13:31:56.620Z,15.07
2018-10-16T13:34:24.778Z,19.70
2018-10-16T13:36:52.985Z,21.83
2018-10-16T13:39:20.985Z,16.50
2018-10-16T13:41:49.192Z,16.67
2018-10-16T13:44:17.446Z,24.20
2018-10-16T13:46:45.530Z,27.20
2018-10-16T13:49:13.617Z,22.43
2018-10-16T13:51:41.721Z,20.03
2018-10-16T13:54:10.174Z,23.27
2018-10-16T13:56:38.428Z,22.60
2018-10-16T13:59:06.530Z,26.67
2018-10-16T14:01:34.653Z,22.63
2018-10-16T14:04:02.903Z,23.37
2018-10-16T14:06:30.982Z,19.43
2018-10-16T14:08:59.080Z,20.23
2018-10-16T14:11:27.195Z,23.57
2018-10-16T14:13:55.369Z,22.03
2018-10-16T14:16:23.463Z,18.93
2018-10-16T14:18:51.545Z,19.87
2018-10-16T14:21:19.623Z,20.60
2018-10-16T14:23:47.689Z,16.93
2018-10-16T14:26:15.820Z,18.93
2018-10-16T14:28:43.850Z,16.10
2018-10-16T14:31:12.000Z,18.97
2018-10-16T14:33:40.172Z,17.37
2018-10-16T14:36:08.316Z,16.50
2018-10-16T14:38:36.488Z,16.30
2018-10-16T14:41:04.631Z,17.70
2018-10-16T14:43:32.768Z,11.70
2018-10-16T14:46:01.503Z,13.63
2018-10-16T14:48:29.916Z,17.20
2018-10-16T14:50:58.023Z,17.17
2018-10-16T14:53:26.110Z,14.07
2018-10-16T14:55:54.363Z,15.03
2018-10-16T14:58:22.423Z,16.77
2018-10-16T15:00:50.573Z,12.73
2018-10-16T15:03:18.777Z,24.03
2018-10-16T15:05:46.888Z,13.83
2018-10-16T15:08:15.122Z,15.37
2018-10-16T15:10:43.194Z,15.70
2018-10-16T15:13:11.296Z,19.63
2018-10-16T15:15:39.398Z,13.77
2018-10-16T15:18:07.626Z,21.07
2018-10-16T15:20:35.736Z,16.70
2018-10-16T15:23:04.043Z,19.90
2018-10-16T15:25:32.209Z,16.63
2018-10-16T15:28:00.376Z,20.07
2018-10-16T15:30:28.593Z,22.13
2018-10-16T15:32:56.716Z,17.83
2018-10-16T15:35:24.848Z,21.07
2018-10-16T15:37:52.969Z,26.03
2018-10-16T15:40:21.121Z,19.63
2018-10-16T15:42:49.312Z,17.60
2018-10-16T15:45:17.468Z,17.27
2018-10-16T15:47:45.554Z,20.50
2018-10-16T15:50:13.749Z,21.10
2018-10-16T15:52:41.800Z,18.33
2018-10-16T15:55:11.081Z,20.60
2018-10-16T15:57:39.397Z,22.93
2018-10-16T16:00:13.709Z,19.50
2018-10-16T16:02:41.840Z,16.73
2018-10-16T16:05:09.948Z,19.17
2018-10-16T16:07:38.220Z,18.93
2018-10-16T16:10:08.011Z,17.13
2018-10-16T16:12:36.658Z,17.53
2018-10-16T16:15:05.329Z,17.13
2018-10-16T16:17:33.428Z,19.03
2018-10-16T16:20:01.560Z,19.47
2018-10-16T16:22:29.613Z,17.83
2018-10-16T16:24:57.753Z,22.63
2018-10-16T16:27:25.851Z,20.53
2018-10-16T16:29:54.018Z,22.13
2018-10-16T16:32:22.172Z,19.53
2018-10-16T16:34:50.249Z,23.27
2018-10-16T16:37:18.350Z,29.23
2018-10-16T16:39:46.483Z,23.50
2018-10-16T16:42:14.597Z,24.27
2018-10-16T16:44:42.689Z,28.10
2018-10-16T16:47:10.814Z,18.73
2018-10-16T16:49:38.884Z,30.20
2018-10-16T16:52:07.232Z,22.33
2018-10-16T16:54:35.209Z,19.77
2018-10-16T16:57:03.367Z,18.13
2018-10-16T16:59:31.511Z,22.93
2018-10-16T17:01:59.738Z,27.67
2018-10-16T17:04:27.932Z,28.83
2018-10-16T17:06:56.012Z,26.33
2018-10-16T17:09:24.091Z,26.57
2018-10-16T17:11:52.320Z,23.43
2018-10-16T17:14:20.431Z,23.00
2018-10-16T17:16:48.546Z,23.20
2018-10-16T17:19:16.632Z,22.50
2018-10-16T17:21:44.718Z,21.57
2018-10-16T17:24:12.875Z,26.30
2018-10-16T17:26:40.996Z,23.83
2018-10-16T17:29:09.109Z,26.97
2018-10-16T17:31:37.272Z,30.93
2018-10-16T17:34:05.763Z,24.07
2018-10-16T17:36:33.800Z,27.90
2018-10-16T17:39:02.140Z,26.60
2018-10-16T17:41:30.208Z,29.20
2018-10-16T17:43:59.911Z,32.90
2018-10-16T17:46:28.049Z,27.70
2018-10-16T17:48:56.225Z,27.13
2018-10-16T17:51:24.367Z,28.13
2018-10-16T17:53:52.734Z,29.87
2018-10-16T17:56:20.930Z,28.57
2018-10-16T17:58:49.148Z,29.80
2018-10-16T18:01:17.262Z,25.80
2018-10-16T18:03:45.392Z,29.83
2018-10-16T18:06:13.509Z,28.80
2018-10-16T18:08:41.715Z,28.03
2018-10-16T18:11:09.806Z,30.90
2018-10-16T18:13:37.984Z,38.30
2018-10-16T18:16:06.405Z,29.70
2018-10-16T18:18:34.622Z,26.43
2018-10-16T18:21:02.766Z,34.30
2018-10-16T18:23:31.015Z,28.20
2018-10-16T18:25:59.127Z,28.53
2018-10-16T18:28:27.327Z,36.83
2018-10-16T18:30:55.478Z,30.23
2018-10-16T18:33:23.588Z,30.50
2018-10-16T18:38:28.668Z,27.53
2018-10-16T18:40:56.840Z,27.83
2018-10-16T18:43:24.971Z,31.20
2018-10-16T18:45:53.260Z,29.30
2018-10-16T18:48:21.454Z,33.83
2018-10-16T18:50:49.511Z,28.57
2018-10-16T18:53:17.736Z,31.67
2018-10-16T18:55:45.862Z,38.60
2018-10-16T18:58:13.999Z,28.97
2018-10-16T19:00:42.091Z,26.43
2018-10-16T19:03:10.264Z,29.97
2018-10-16T19:05:38.378Z,29.00
2018-10-16T19:08:06.632Z,27.37
2018-10-16T19:10:34.755Z,32.13
2018-10-16T19:13:03.369Z,30.87
2018-10-16T19:15:31.480Z,27.87
2018-10-16T19:17:59.582Z,36.03
2018-10-16T19:20:27.760Z,29.30
2018-10-16T19:22:55.903Z,29.20
2018-10-16T19:25:24.050Z,28.87
2018-10-16T19:27:52.169Z,28.70
2018-10-16T19:30:20.397Z,31.43
2018-10-16T19:32:48.612Z,32.90
2018-10-16T19:35:16.773Z,34.23
2018-10-16T19:37:44.961Z,33.60
2018-10-16T19:40:13.084Z,29.93
2018-10-16T19:42:41.208Z,32.70
2018-10-16T19:45:09.896Z,30.83
2018-10-16T19:47:37.979Z,36.57
2018-10-16T19:50:06.842Z,34.67
2018-10-16T19:52:35.004Z,31.17
2018-10-16T19:55:03.156Z,32.30
2018-10-16T19:57:31.340Z,34.47
2018-10-16T19:59:59.479Z,34.83
2018-10-16T20:02:27.549Z,37.00
2018-10-16T20:04:55.659Z,46.00
2018-10-16T20:07:23.879Z,35.67
2018-10-16T20:09:52.072Z,35.53
2018-10-16T20:12:20.178Z,37.30
2018-10-16T20:14:48.388Z,82.50
2018-10-16T20:17:16.588Z,60.50
2018-10-16T20:19:44.801Z,45.00
2018-10-16T20:22:13.289Z,36.80
2018-10-16T20:24:41.475Z,55.50
2018-10-16T20:27:09.763Z,50.53
2018-10-16T20:29:38.224Z,33.70
2018-10-16T20:32:06.348Z,36.13
2018-10-16T20:34:34.526Z,40.07
2018-10-16T20:37:02.816Z,34.03
2018-10-16T20:39:31.006Z,33.80
2018-10-16T20:41:59.248Z,40.07
2018-10-16T20:44:27.354Z,34.37
2018-10-16T20:46:55.645Z,52.13
2018-10-16T20:49:23.803Z,34.27
2018-10-16T20:51:51.933Z,34.70
2018-10-16T20:54:20.048Z,31.23
2018-10-16T20:56:48.184Z,30.37
2018-10-16T20:59:16.292Z,35.67
2018-10-16T21:01:44.380Z,31.83
2018-10-16T21:04:12.564Z,33.90
2018-10-16T21:06:47.784Z,32.60
2018-10-16T21:09:15.528Z,32.57
2018-10-16T21:11:43.593Z,29.13
2018-10-16T21:14:11.691Z,28.17
2018-10-16T21:16:39.843Z,27.47
2018-10-16T21:19:07.991Z,31.10
2018-10-16T21:21:36.217Z,29.37
2018-10-16T21:24:04.573Z,27.60
2018-10-16T21:26:32.670Z,23.93
2018-10-16T21:29:00.795Z,22.07
2018-10-16T21:31:28.918Z,27.43
2018-10-16T21:33:57.089Z,30.53
2018-10-16T21:36:25.263Z,29.17
2018-10-16T21:38:53.389Z,24.67
2018-10-16T21:41:21.576Z,29.00
2018-10-16T21:43:49.762Z,25.60
2018-10-16T21:46:17.914Z,27.20
2018-10-16T21:48:46.008Z,27.73
2018-10-16T21:51:14.090Z,26.53
2018-10-16T21:53:42.175Z,27.27
2018-10-16T21:56:10.285Z,31.90
2018-10-16T21:58:38.433Z,32.37
2018-10-16T22:01:08.562Z,32.23
2018-10-16T22:03:36.622Z,27.17
2018-10-16T22:06:04.826Z,31.83
2018-10-16T22:08:32.911Z,38.37
2018-10-16T22:11:01.032Z,31.20
2018-10-16T22:13:29.086Z,32.87
2018-10-16T22:15:57.223Z,33.40
2018-10-16T22:18:25.391Z,33.53
2018-10-16T22:20:53.606Z,31.50
2018-10-16T22:23:21.694Z,31.90
2018-10-16T22:25:49.847Z,32.93
2018-10-16T22:28:17.922Z,30.73
2018-10-16T22:30:46.073Z,33.63
2018-10-16T22:33:14.160Z,31.73
2018-10-16T22:35:42.225Z,30.20
2018-10-16T22:38:10.341Z,29.83
2018-10-16T22:40:38.439Z,32.47
2018-10-16T22:43:06.811Z,29.57
2018-10-16T22:45:34.903Z,34.77
2018-10-16T22:48:02.993Z,33.83
2018-10-16T22:50:31.065Z,34.20
2018-10-16T22:52:59.284Z,34.87
2018-10-16T22:55:27.390Z,35.10
2018-10-16T22:57:55.542Z,32.33
2018-10-16T23:00:23.667Z,33.47
2018-10-16T23:02:51.772Z,32.40
2018-10-16T23:05:19.972Z,36.83
2018-10-16T23:07:48.078Z,35.93
2018-10-16T23:10:16.237Z,35.17
2018-10-16T23:12:44.594Z,35.43
2018-10-16T23:15:12.670Z,40.17
2018-10-16T23:17:40.946Z,32.93
2018-10-16T23:20:10.106Z,34.13
2018-10-16T23:22:38.244Z,35.93
2018-10-16T23:25:06.434Z,33.70
2018-10-16T23:27:34.761Z,35.00
2018-10-16T23:30:02.925Z,35.97
2018-10-16T23:32:31.073Z,31.63
2018-10-16T23:34:59.657Z,33.10
2018-10-16T23:37:27.798Z,38.33
2018-10-16T23:39:55.883Z,34.73
2018-10-16T23:42:24.002Z,31.80
2018-10-16T23:44:52.210Z,32.57
2018-10-16T23:47:20.389Z,36.63
2018-10-16T23:49:48.534Z,39.50
2018-10-16T23:52:16.676Z,31.17
2018-10-16T23:54:44.855Z,31.53
2018-10-16T23:57:12.954Z,33.53
2018-10-16T23:59:41.057Z,34.60
